Latest Coastal Weather Observations for Wilsons Promontory

IDT60701

Issued at 10:25 pm EST Thursday 2 October 2014 (issued every 10 minutes, with the page automatically refreshed every 10 minutes)

About coastal observations | Map of coastal stations | Coastal observations for TAS | Marine services | Other Formats
Station Details ID: 085096 Name: WILSONS PROMONTORY LIGHTHOUSE Lat: -39.13 Lon: 146.42 Height: 95.0 m
Data from the previous 72 hours. | See also: Recent months at Wilsons Promontory
Date/Time
EST
Temp

°C
Wind Pressure Rain
since 9am
mm
Weather Cloud Vis
km
Sea
Height
m
Swell
Dir
 
Speed
knots
Gust
knots
hPa Trend Height
m
Period
s
Dir
02/10:20pm 11.8 W 21 31 1020.8 - 0.2 - - - - - - -
02/10:00pm 11.5 W 26 32 1020.8 - 0.2 - - - - - - -
02/09:46pm 11.7 W 23 33 1021.0 - 0.2 - - - - - - -
02/09:30pm 11.4 W 23 30 1020.8 - 0.2 - - - - - - -
02/09:00pm 11.5 W 23 31 1020.9 - 0.2 - - - - - - -
02/08:34pm 11.6 W 23 33 1020.7 - 0.2 - - - - - - -
02/08:30pm 11.7 W 25 33 1020.8 - 0.2 - - - - - - -
02/08:00pm 11.5 W 27 35 1020.8 - 0.2 - - - - - - -
02/07:30pm 11.8 W 26 36 1020.3 - 0.2 - - - - - - -
02/07:00pm 12.1 W 26 37 1019.9 - 0.2 - - - - - - -
02/06:30pm 12.1 W 26 36 1019.7 - 0.2 - - - - - - -
02/06:15pm 12.3 W 25 35 1019.6 - 0.2 - - - - - - -
02/06:00pm 12.3 W 25 32 1019.3 - 0.2 - - - - - - -
02/05:30pm 12.5 W 28 38 1019.3 - 0.2 - - - - - - -
02/05:15pm 12.7 W 26 37 1019.2 - 0.2 - - - - - - -
02/05:00pm 12.7 W 28 36 1019.1 - 0.2 - - - - - - -
02/04:30pm 12.7 W 28 39 1018.9 - 0.2 - - - - - - -
02/04:02pm 12.9 W 26 36 1018.6 - 0.2 - - - - - - -
02/04:00pm 13.0 W 27 35 1018.7 - 0.2 - - - - - - -
02/03:38pm 13.5 W 29 39 1018.4 - 0.2 - - - - - - -
02/03:30pm 13.5 W 31 38 1018.3 - 0.2 - - - - - - -
02/03:00pm 13.1 W 29 39 1018.3 - 0.2 - - - - - - -
02/02:30pm 13.1 W 31 41 1018.4 - 0.2 - - - - - - -
02/02:00pm 13.0 W 29 40 1018.6 - 0.2 - - - - - - -
02/01:30pm 13.4 W 28 39 1018.5 - 0.2 - - - - - - -
02/01:00pm 13.1 W 29 39 1018.7 - 0.2 - - - - - - -
02/12:30pm 12.3 W 28 41 1018.2 - 0.2 - - - - - - -
02/12:00pm 14.1 W 27 38 1018.9 - 0.2 - - - - - - -
02/11:30am 13.7 W 29 41 1018.6 - 0.2 - - - - - - -
02/11:00am 13.0 W 28 42 1018.7 - 0.2 - - - - - - -
02/10:48am 12.0 W 35 45 1018.7 - 0.2 - - - - - - -
02/10:40am 11.3 W 40 45 1018.2 - 0.2 - - - - - - -
02/10:30am 13.4 W 29 40 1018.7 - 0.0 - - - - - - -
02/10:00am 13.0 W 32 43 1018.5 - 0.0 - - - - - - -
02/09:30am 13.2 W 27 38 1019.1 - 0.0 - - - - - - -
02/09:00am 13.0 W 26 37 1018.8 - - - - - - - - -
02/08:30am 12.5 W 29 39 1018.7 - - - - - - - - -
02/08:00am 11.7 W 30 41 1018.8 - - - - - - - - -
02/07:30am 12.2 W 27 42 1018.8 - - - - - - - - -
02/07:00am 12.3 W 26 38 1018.0 - - - - - - - - -
02/06:30am 11.9 W 29 41 1018.0 - - - - - - - - -
02/06:00am 12.1 W 30 40 1017.5 - - - - - - - - -
02/05:30am 11.7 W 27 38 1017.8 - - - - - - - - -
02/05:00am 11.3 W 28 43 1017.4 - - - - - - - - -
02/04:30am 11.6 W 28 41 1017.8 - - - - - - - - -
02/04:00am 10.9 W 32 44 1017.4 - - - - - - - - -
02/03:30am 11.0 W 31 44 1017.8 - - - - - - - - -
02/03:00am 11.6 W 26 40 1018.2 - - - - - - - - -
02/02:30am 11.8 W 25 38 1019.0 - - - - - - - - -
02/02:00am 11.8 W 27 43 1019.0 - - - - - - - - -
02/01:30am 11.6 W 28 41 1019.4 - - - - - - - - -
02/01:00am 11.3 W 26 39 1019.7 - - - - - - - - -
02/12:31am 11.9 W 27 37 1019.9 - - - - - - - - -
02/12:30am 11.9 W 27 36 1020.0 - - - - - - - - -
02/12:00am 11.9 W 26 36 1020.3 - - - - - - - - -
 
Date/Time
EST
Temp

°C
Wind Pressure Rain
since 9am
mm
Weather Cloud Vis
km
Sea
Height
m
Swell
Dir
 
Speed
knots
Gust
knots
hPa Trend Height
m
Period
s
Dir
01/11:30pm 11.9 W 21 35 1020.6 - - - - - - - - -
01/11:00pm 12.0 W 22 34 1020.7 - - - - - - - - -
01/10:40pm 12.0 W 22 32 1020.5 - - - - - - - - -
01/10:30pm 12.0 W 23 32 1020.8 - - - - - - - - -
01/10:14pm 11.8 W 20 30 1021.2 - - - - - - - - -
01/10:00pm 11.7 W 21 30 1021.3 - - - - - - - - -
01/09:30pm 11.5 W 23 31 1021.4 - - - - - - - - -
01/09:00pm 11.7 W 20 30 1021.3 - - - - - - - - -
01/08:32pm 11.7 W 22 33 1021.3 - - - - - - - - -
01/08:30pm 11.7 W 21 30 1021.3 - - - - - - - - -
01/08:16pm 12.0 W 25 41 1021.2 - - - - - - - - -
01/08:00pm 11.8 WSW 37 43 1020.5 - - - - - - - - -
01/07:50pm 11.9 SW 40 43 1020.3 - - - - - - - - -
01/07:40pm 12.0 W 27 37 1021.0 - - - - - - - - -
01/07:30pm 11.7 W 30 39 1020.8 - - - - - - - - -
01/07:02pm 11.5 W 27 37 1020.6 - - - - - - - - -
01/07:00pm 11.5 W 29 38 1020.7 - - - - - - - - -
01/06:30pm 11.5 W 29 40 1020.1 - - - - - - - - -
01/06:00pm 11.6 W 25 36 1019.9 - - - - - - - - -
01/05:59pm 11.7 W 24 35 1020.0 - - - - - - - - -
01/05:30pm 11.5 W 26 34 1020.2 - - - - - - - - -
01/05:00pm 11.8 W 28 38 1019.7 - - - - - - - - -
01/04:30pm 11.9 W 27 37 1019.8 - - - - - - - - -
01/04:00pm 11.6 W 25 36 1019.8 - - - - - - - - -
01/03:30pm 12.3 W 27 37 1020.2 - - - - - - - - -
01/03:00pm 12.5 W 24 35 1019.9 - - - - - - - - -
01/02:36pm 12.0 W 27 37 1020.0 - - - - - - - - -
01/02:30pm 12.2 W 30 37 1019.8 - - - - - - - - -
01/02:00pm 12.8 W 27 33 1019.6 - - - - - - - - -
01/01:31pm 12.4 W 21 31 1019.6 - - - - - - - - -
01/01:30pm 12.3 W 22 31 1019.6 - - - - - - - - -
01/01:14pm 11.9 W 22 33 1020.0 - - - - - - - - -
01/01:00pm 10.7 WSW 24 32 1019.9 - - - - - - - - -
01/12:54pm 10.4 WSW 26 30 1020.1 - - - - - - - - -
01/12:30pm 11.0 W 15 23 1020.7 - - - - - - - - -
01/12:21pm 10.3 W 18 29 1020.7 - - - - - - - - -
01/12:03pm 9.6 WSW 30 40 1019.8 - - - - - - - - -
01/12:00pm 10.6 WSW 32 40 1019.3 - - - - - - - - -
01/11:56am 11.8 SW 31 36 1019.8 - - - - - - - - -
01/11:54am 12.3 W 20 30 1020.0 - - - - - - - - -
01/11:30am 11.7 W 21 31 1019.8 - 0.0 - - - - - - -
01/11:00am 12.1 WSW 25 35 1019.8 - 0.0 - - - - - - -
01/10:37am 11.8 WSW 24 34 1019.6 - 0.0 - - - - - - -
01/10:30am 11.7 WSW 25 33 1019.5 - 0.0 - - - - - - -
01/10:01am 11.4 WSW 27 37 1019.0 - 0.0 - - - - - - -
01/10:00am 11.4 WSW 26 35 1019.1 - 0.0 - - - - - - -
01/09:54am 11.4 W 23 34 1019.1 - 0.0 - - - - - - -
01/09:30am 11.3 W 22 28 1019.4 - 0.0 - - - - - - -
01/09:15am 11.1 W 28 40 1019.1 - 0.0 - - - - - - -
01/09:00am 10.8 WSW 38 44 1018.1 - 9.2 - - - - - - -
01/08:36am 11.1 SW 37 48 1017.0 - 9.2 - - - - - - -
01/08:30am 11.0 SW 36 42 1017.5 - 9.2 - - - - - - -
01/08:00am 10.7 WSW 34 43 1016.9 - 9.2 - - - - - - -
01/07:49am 10.3 WSW 29 39 1017.2 - 9.2 - - - - - - -
01/07:30am 10.3 WSW 27 42 1016.8 - 9.2 - - - - - - -
01/07:00am 9.8 SW 41 48 1015.4 - 9.2 - - - - - - -
01/06:52am 9.2 SW 39 51 1014.7 - 9.2 - - - - - - -
01/06:50am 9.1 SSW 23 51 1014.7 - 9.2 - - - - - - -
01/06:48am 9.4 SW 41 51 1014.5 - 9.2 - - - - - - -
01/06:33am 10.3 W 30 52 1015.0 - 9.2 - - - - - - -
01/06:31am 10.3 W 33 52 1014.7 - 9.2 - - - - - - -
01/06:30am 10.2 WSW 45 52 1014.4 - 9.2 - - - - - - -
01/06:08am 10.2 SW 50 61 1012.9 - 9.2 - - - - - - -
01/06:01am 10.0 WSW 40 55 1013.1 - 9.2 - - - - - - -
01/06:00am 10.1 WSW 40 48 1013.7 - 9.2 - - - - - - -
01/05:30am 10.2 WSW 39 51 1012.7 - 9.2 - - - - - - -
01/05:08am 10.2 SW 43 55 1011.9 - 9.2 - - - - - - -
01/05:06am 9.9 SW 41 56 1012.3 - 9.2 - - - - - - -
01/05:00am 9.4 SSW 30 56 1011.8 - 9.2 - - - - - - -
01/04:59am 9.5 SW 33 56 1011.8 - 9.2 - - - - - - -
01/04:30am 9.7 WSW 36 49 1012.2 - 9.0 - - - - - - -
01/04:07am 9.4 WSW 41 51 1011.3 - 9.0 - - - - - - -
01/04:00am 8.7 WSW 43 50 1011.0 - 8.8 - - - - - - -
01/03:52am 10.0 SW 43 50 1010.8 - 8.6 - - - - - - -
01/03:36am 8.9 W 34 62 1011.3 - 8.6 - - - - - - -
01/03:34am 8.8 W 36 62 1010.8 - 8.6 - - - - - - -
01/03:30am 9.1 WSW 48 62 1009.3 - 8.6 - - - - - - -
01/03:21am 10.3 WSW 47 57 1009.8 - 8.6 - - - - - - -
01/03:00am 9.8 WSW 33 43 1010.7 - 8.6 - - - - - - -
01/02:53am 9.4 WSW 32 46 1010.7 - 8.6 - - - - - - -
01/02:52am 9.3 WSW 29 46 1011.0 - 8.6 - - - - - - -
01/02:30am 8.7 SW 44 52 1009.6 - 8.6 - - - - - - -
01/02:18am 8.5 SW 44 52 1009.3 - 8.6 - - - - - - -
01/02:08am 8.3 SW 31 47 1008.8 - 8.6 - - - - - - -
01/02:06am 8.3 S 22 54 1008.9 - 8.6 - - - - - - -
01/02:01am 7.6 NNE 20 66 1008.2 - 8.6 - - - - - - -
01/02:00am 7.7 NNW 21 66 1008.2 - 8.6 - - - - - - -
01/01:57am 7.9 WSW 23 66 1007.0 - 8.6 - - - - - - -
01/01:55am 7.7 W 22 66 1006.7 - 8.6 - - - - - - -
01/01:54am 7.8 ENE 26 66 1006.5 - 8.6 - - - - - - -
01/01:30am 8.6 WSW 48 58 1008.5 - 8.6 - - - - - - -
01/01:23am 8.9 WSW 48 58 1008.1 - 8.6 - - - - - - -
01/01:22am 9.0 W 35 58 1008.2 - 8.6 - - - - - - -
01/01:00am 9.7 W 36 48 1008.2 - 8.6 - - - - - - -
01/12:31am 9.0 W 32 43 1008.5 - 8.2 - - - - - - -
01/12:30am 9.2 W 31 40 1008.6 - 8.2 - - - - - - -
01/12:25am 9.3 W 20 39 1009.0 - 8.0 - - - - - - -
01/12:01am 9.6 W 36 47 1008.3 - 8.0 - - - - - - -
01/12:00am 9.5 W 38 47 1008.2 - 8.0 - - - - - - -
 
Date/Time
EST
Temp

°C
Wind Pressure Rain
since 9am
mm
Weather Cloud Vis
km
Sea
Height
m
Swell
Dir
 
Speed
knots
Gust
knots
hPa Trend Height
m
Period
s
Dir
30/11:58pm 9.5 W 39 47 1008.0 - 8.0 - - - - - - -
30/11:30pm 9.3 W 28 39 1008.6 - 8.0 - - - - - - -
30/11:00pm 8.5 W 22 36 1008.8 - 8.0 - - - - - - -
30/10:30pm 9.3 W 27 42 1008.1 - 7.8 - - - - - - -
30/10:00pm 10.3 W 30 45 1007.5 - 7.8 - - - - - - -
30/09:39pm 10.8 W 29 48 1006.8 - 7.6 - - - - - - -
30/09:30pm 10.5 W 25 36 1007.3 - 7.6 - - - - - - -
30/09:00pm 10.7 W 28 42 1006.7 - 7.6 - - - - - - -
30/08:30pm 10.5 W 31 43 1007.0 - 7.6 - - - - - - -
30/08:00pm 11.1 W 27 41 1006.2 - 7.6 - - - - - - -
30/07:52pm 10.1 W 32 55 1006.2 - 7.6 - - - - - - -
30/07:48pm 9.7 W 32 56 1006.0 - 7.6 - - - - - - -
30/07:41pm 10.0 WSW 44 56 1004.4 - 7.4 - - - - - - -
30/07:30pm 11.6 W 30 43 1005.1 - 7.4 - - - - - - -
30/07:00pm 11.4 W 33 43 1005.2 - 7.4 - - - - - - -
30/06:31pm 11.2 W 36 46 1004.7 - 7.4 - - - - - - -
30/06:30pm 11.2 W 38 48 1004.6 - 7.4 - - - - - - -
30/06:23pm 10.9 W 26 48 1004.8 - 7.4 - - - - - - -
30/06:21pm 11.0 W 37 48 1004.3 - 7.4 - - - - - - -
30/06:00pm 9.9 W 26 39 1004.1 - 7.4 - - - - - - -
30/05:30pm 9.8 W 31 53 1003.3 - 6.6 - - - - - - -
30/05:07pm 10.5 W 38 49 1002.6 - 6.2 - - - - - - -
30/05:06pm 10.5 W 41 49 1002.5 - 6.2 - - - - - - -
30/05:00pm 10.1 W 28 45 1002.8 - 6.2 - - - - - - -
30/04:54pm 10.3 W 28 50 1003.5 - 6.0 - - - - - - -
30/04:30pm 10.0 W 41 60 1001.5 - 5.8 - - - - - - -
30/04:14pm 10.8 W 41 60 1000.8 - 5.4 - - - - - - -
30/04:09pm 11.0 W 30 60 1000.7 - 5.4 - - - - - - -
30/04:00pm 11.6 W 43 59 999.9 - 5.4 - - - - - - -
30/03:45pm 11.4 W 41 56 999.2 - 5.4 - - - - - - -
30/03:36pm 11.5 W 28 57 1000.3 - 5.0 - - - - - - -
30/03:30pm 11.3 W 41 66 999.3 - 5.0 - - - - - - -
30/03:22pm 11.2 W 41 66 998.6 - 4.0 - - - - - - -
30/03:16pm 12.0 W 39 51 999.8 - 3.4 - - - - - - -
30/03:08pm 13.8 W 26 59 1000.2 - 0.2 - - - - - - -
30/03:05pm 14.8 W 45 59 998.8 - 0.0 - - - - - - -
30/03:04pm 15.7 W 25 59 997.3 - 0.0 - - - - - - -
30/03:03pm 17.4 WNW 17 47 999.1 - 0.0 - - - - - - -
30/03:00pm 18.9 N 9 19 999.5 - 0.0 - - - - - - -
30/02:30pm 19.1 NNE 6 21 999.2 - 0.0 - - - - - - -
30/02:00pm 19.6 NNW 10 27 999.7 - 0.0 - - - - - - -
30/01:30pm 19.2 W 14 30 1000.1 - 0.0 - - - - - - -
30/01:00pm 19.3 WNW 17 33 1001.0 - 0.0 - - - - - - -
30/12:31pm 19.7 W 15 35 1001.4 - 0.0 - - - - - - -
30/12:30pm 19.8 W 14 35 1001.2 - 0.0 - - - - - - -
30/12:05pm 19.0 W 18 31 1001.7 - 0.0 - - - - - - -
30/12:00pm 19.2 NW 8 25 1002.3 - 0.0 - - - - - - -
30/11:36am 18.9 NW 17 30 1002.5 - 0.0 - - - - - - -
30/11:30am 19.1 N 7 21 1002.7 - 0.0 - - - - - - -
30/11:00am 18.4 NW 13 24 1003.1 - 0.0 - - - - - - -
30/10:30am 17.3 N 11 27 1004.2 - 0.0 - - - - - - -
30/10:00am 17.0 NNW 7 21 1005.0 - 0.0 - - - - - - -
30/09:30am 15.8 N 7 15 1005.6 - 0.0 - - - - - - -
30/09:00am 15.4 NNW 9 20 1006.1 - 0.0 - - - - - - -
30/08:30am 14.7 NNE 8 28 1006.0 - 0.0 - - - - - - -
30/08:00am 14.3 W 11 23 1006.7 - 0.0 - - - - - - -
30/07:30am 13.8 W 18 29 1006.6 - 0.0 - - - - - - -
30/07:06am 13.6 W 15 26 1007.1 - 0.0 - - - - - - -
30/07:00am 13.5 W 13 22 1007.1 - 0.0 - - - - - - -
30/06:30am 13.5 WNW 10 18 1007.2 - 0.0 - - - - - - -
30/06:00am 13.2 NNW 10 19 1007.2 - 0.0 - - - - - - -
30/05:30am 12.8 WNW 3 10 1007.1 - 0.0 - - - - - - -
30/05:00am 12.2 NE 5 7 1007.0 - 0.0 - - - - - - -
30/04:30am 12.6 N 5 8 1007.2 - 0.0 - - - - - - -
30/04:00am 12.0 NW 4 6 1007.4 - 0.0 - - - - - - -
30/03:30am 12.0 WNW 3 5 1007.8 - 0.0 - - - - - - -
30/03:00am 12.1 W 6 8 1008.3 - 0.0 - - - - - - -
30/02:30am 12.2 W 6 8 1008.8 - 0.0 - - - - - - -
30/02:00am 12.4 W 5 7 1009.3 - 0.0 - - - - - - -
30/01:30am 12.3 W 7 9 1009.7 - 0.0 - - - - - - -
30/01:00am 12.5 W 9 11 1010.3 - 0.0 - - - - - - -
30/12:30am 12.6 W 10 13 1010.5 - 0.0 - - - - - - -
30/12:00am 13.6 W 10 11 1010.7 - 0.0 - - - - - - -
 
Date/Time
EST
Temp

°C
Wind Pressure Rain
since 9am
mm
Weather Cloud Vis
km
Sea
Height
m
Swell
Dir
 
Speed
knots
Gust
knots
hPa Trend Height
m
Period
s
Dir
29/11:30pm 13.5 NW 3 7 1010.9 - 0.0 - - - - - - -
29/11:00pm 13.6 N 9 16 1010.8 - 0.0 - - - - - - -
29/10:30pm 13.5 N 15 19 1011.0 - 0.0 - - - - - - -

Other Formats:

Comma delimited format used in spreadsheet applications
http://www.bom.gov.au/fwo/IDT60701/IDT60701.94893.axf

JavaScript Object Notation format (JSON) in row-major order
http://www.bom.gov.au/fwo/IDT60701/IDT60701.94893.json